createdAt,value
2023-07-29T00:02:41.124Z,69.46
2023-07-29T00:06:44.052Z,69.43
2023-07-29T00:10:44.364Z,68.72
2023-07-29T00:14:44.609Z,69.06
2023-07-29T00:18:44.794Z,69.22
2023-07-29T00:22:47.641Z,69.77
2023-07-29T00:26:47.832Z,69.00
2023-07-29T00:30:48.137Z,68.96
2023-07-29T00:34:48.476Z,68.90
2023-07-29T00:38:52.027Z,69.57
2023-07-29T00:42:53.233Z,69.33
2023-07-29T00:46:56.585Z,69.48
2023-07-29T00:50:58.249Z,69.87
2023-07-29T00:55:01.167Z,70.02
2023-07-29T00:59:03.279Z,69.73
2023-07-29T01:03:03.921Z,69.34
2023-07-29T01:07:15.091Z,69.83
2023-07-29T01:11:37.539Z,69.41
2023-07-29T01:15:47.593Z,69.31
2023-07-29T01:20:06.825Z,69.83
2023-07-29T01:24:10.194Z,70.37
2023-07-29T01:28:10.726Z,70.43
2023-07-29T01:32:19.186Z,70.56
2023-07-29T01:36:26.931Z,70.81
2023-07-29T01:40:32.070Z,71.61
2023-07-29T01:44:32.824Z,71.75
2023-07-29T01:48:34.097Z,72.64
2023-07-29T01:52:34.338Z,71.77
2023-07-29T01:56:38.623Z,72.22
2023-07-29T02:00:39.063Z,72.23
2023-07-29T02:04:39.344Z,71.72
2023-07-29T02:08:42.135Z,71.15
2023-07-29T02:12:44.912Z,71.74
2023-07-29T02:16:45.148Z,71.76
2023-07-29T02:20:50.583Z,72.50
2023-07-29T02:24:51.209Z,73.39
2023-07-29T02:28:54.047Z,72.42
2023-07-29T02:32:54.315Z,73.18
2023-07-29T02:36:54.591Z,72.24
2023-07-29T02:40:54.908Z,72.02
2023-07-29T02:44:57.763Z,71.66
2023-07-29T02:48:58.084Z,72.17
2023-07-29T02:52:58.440Z,72.53
2023-07-29T02:56:58.650Z,72.68
2023-07-29T03:01:05.877Z,71.79
2023-07-29T03:05:06.554Z,71.10
2023-07-29T03:09:06.901Z,71.04
2023-07-29T03:13:07.234Z,71.55
2023-07-29T03:17:10.756Z,70.83
2023-07-29T03:21:11.767Z,70.32
2023-07-29T03:25:12.718Z,70.33
2023-07-29T03:29:13.305Z,71.54
2023-07-29T03:33:16.333Z,71.77
2023-07-29T03:37:16.622Z,71.77
2023-07-29T03:41:16.901Z,73.04
2023-07-29T03:45:17.362Z,73.68
2023-07-29T03:49:20.327Z,73.65
2023-07-29T03:53:20.605Z,74.57
2023-07-29T03:57:20.904Z,75.53
2023-07-29T04:01:21.252Z,75.79
2023-07-29T04:05:24.272Z,76.30
2023-07-29T04:09:24.618Z,76.31
2023-07-29T04:13:25.047Z,76.65
2023-07-29T04:17:26.210Z,76.04
2023-07-29T04:21:29.010Z,74.98
2023-07-29T04:25:29.542Z,74.95
2023-07-29T04:29:30.135Z,74.97
2023-07-29T04:33:30.549Z,74.55
2023-07-29T04:37:33.513Z,74.70
2023-07-29T04:41:33.821Z,75.22
2023-07-29T04:45:34.854Z,74.80
2023-07-29T04:49:35.179Z,74.30
2023-07-29T04:53:39.568Z,74.16
2023-07-29T04:57:39.801Z,73.80
2023-07-29T05:01:40.041Z,73.24
2023-07-29T05:05:40.334Z,73.04
2023-07-29T05:09:43.595Z,71.84
2023-07-29T05:13:45.253Z,70.88
2023-07-29T05:17:46.420Z,70.59
2023-07-29T05:21:46.681Z,69.34
2023-07-29T05:25:49.581Z,68.44
2023-07-29T05:29:49.796Z,66.55
2023-07-29T05:33:50.170Z,64.37
2023-07-29T05:37:50.485Z,62.94
2023-07-29T05:41:53.366Z,62.44
2023-07-29T05:45:53.762Z,62.13
2023-07-29T05:49:54.658Z,62.25
2023-07-29T05:53:54.964Z,61.32
2023-07-29T05:57:58.971Z,63.25
2023-07-29T06:02:00.674Z,61.62
2023-07-29T06:06:00.890Z,60.44
2023-07-29T06:10:01.182Z,60.86
2023-07-29T06:14:03.983Z,61.70
2023-07-29T06:18:04.286Z,62.43
2023-07-29T06:22:05.639Z,62.01
2023-07-29T06:26:07.065Z,61.82
2023-07-29T06:30:11.804Z,61.44
2023-07-29T06:34:12.055Z,62.71
2023-07-29T06:38:12.370Z,62.50
2023-07-29T06:42:12.611Z,61.99
2023-07-29T06:46:15.580Z,61.82
2023-07-29T06:50:15.796Z,62.02
2023-07-29T06:54:16.056Z,62.40
2023-07-29T06:58:16.697Z,60.32
2023-07-29T07:02:20.004Z,59.51
2023-07-29T07:06:20.287Z,61.97
2023-07-29T07:10:20.718Z,63.46
2023-07-29T07:14:21.035Z,67.58
2023-07-29T07:18:24.371Z,71.03
2023-07-29T07:22:25.188Z,73.39
2023-07-29T07:26:25.433Z,74.65
2023-07-29T07:30:25.692Z,75.29
2023-07-29T07:34:28.570Z,74.46
2023-07-29T07:38:28.924Z,74.38
2023-07-29T07:42:29.208Z,73.02
2023-07-29T07:46:29.478Z,75.15
2023-07-29T07:50:33.917Z,75.92
2023-07-29T07:54:34.245Z,75.91
2023-07-29T07:58:34.513Z,74.82
2023-07-29T08:02:34.843Z,75.26
2023-07-29T08:06:38.007Z,74.76
2023-07-29T08:10:38.458Z,73.01
2023-07-29T08:14:38.695Z,72.71
2023-07-29T08:18:40.330Z,72.07
2023-07-29T08:22:43.261Z,71.17
2023-07-29T08:26:43.486Z,70.65
2023-07-29T08:30:43.718Z,69.11
2023-07-29T08:34:43.979Z,68.54
2023-07-29T08:38:47.041Z,69.99
2023-07-29T08:42:52.620Z,69.62
2023-07-29T08:46:52.946Z,69.63
2023-07-29T08:50:56.341Z,69.61
2023-07-29T08:55:00.313Z,69.81
2023-07-29T08:59:03.445Z,72.38
2023-07-29T09:03:07.793Z,76.19
2023-07-29T09:07:11.385Z,76.01
2023-07-29T09:11:18.314Z,77.33
2023-07-29T09:15:32.052Z,78.80
2023-07-29T09:19:32.385Z,78.24
2023-07-29T09:23:32.734Z,73.89
2023-07-29T09:27:40.032Z,70.68
2023-07-29T09:31:40.432Z,72.13
2023-07-29T09:35:42.175Z,72.29
2023-07-29T09:39:42.609Z,73.33
2023-07-29T09:43:48.364Z,74.48
2023-07-29T09:47:51.564Z,73.74
2023-07-29T09:51:51.989Z,73.30
2023-07-29T09:55:53.366Z,74.04
2023-07-29T10:00:06.059Z,75.54
2023-07-29T10:04:10.108Z,74.97
2023-07-29T10:08:14.923Z,75.61
2023-07-29T10:12:17.626Z,75.99
2023-07-29T10:16:25.885Z,75.64
2023-07-29T10:20:26.686Z,76.95
2023-07-29T10:24:34.096Z,77.66
2023-07-29T10:28:36.732Z,76.88
2023-07-29T10:32:41.003Z,77.56
2023-07-29T10:36:42.183Z,77.49
2023-07-29T10:40:54.357Z,77.43
2023-07-29T10:44:56.884Z,76.23
2023-07-29T10:49:01.227Z,73.85
2023-07-29T10:53:01.692Z,72.09
2023-07-29T10:57:02.875Z,69.31
2023-07-29T11:01:03.229Z,65.36
2023-07-29T11:05:11.547Z,65.06
2023-07-29T11:09:43.754Z,65.58
2023-07-29T11:13:45.093Z,67.21
2023-07-29T11:17:48.149Z,67.53
2023-07-29T11:21:52.509Z,61.24
2023-07-29T11:25:54.166Z,55.17
2023-07-29T11:29:54.568Z,54.93
2023-07-29T11:33:55.397Z,55.83
2023-07-29T11:38:00.470Z,57.80
2023-07-29T11:42:00.683Z,60.92
2023-07-29T11:46:04.955Z,62.39
2023-07-29T11:50:08.047Z,59.92
2023-07-29T11:54:12.420Z,59.98
2023-07-29T11:58:13.703Z,59.95
2023-07-29T12:02:18.938Z,58.57
2023-07-29T12:06:20.056Z,55.97
2023-07-29T12:10:23.406Z,55.83
2023-07-29T12:14:23.979Z,53.75
2023-07-29T12:18:34.959Z,53.96
2023-07-29T12:22:35.312Z,56.35
2023-07-29T12:26:40.116Z,58.58
2023-07-29T12:30:46.284Z,58.78
2023-07-29T12:34:46.573Z,60.48
2023-07-29T12:38:47.749Z,61.66
2023-07-29T12:42:51.027Z,59.69
2023-07-29T12:46:51.480Z,57.12
2023-07-29T12:50:52.953Z,54.54
2023-07-29T12:54:53.148Z,52.57
2023-07-29T12:58:55.927Z,50.55
2023-07-29T13:02:56.260Z,49.75
2023-07-29T13:06:57.760Z,48.54
2023-07-29T13:10:58.106Z,44.82
2023-07-29T13:15:01.184Z,44.76
2023-07-29T13:19:01.695Z,44.37
2023-07-29T13:23:01.949Z,42.59
2023-07-29T13:27:02.244Z,42.39
2023-07-29T13:31:05.451Z,43.24
2023-07-29T13:35:05.818Z,39.69
2023-07-29T13:39:06.914Z,40.61
2023-07-29T13:43:07.640Z,42.01
2023-07-29T13:47:10.685Z,43.10
2023-07-29T13:51:10.972Z,43.88
2023-07-29T13:55:12.762Z,41.53
2023-07-29T13:59:13.037Z,40.69
2023-07-29T14:03:15.942Z,41.45
2023-07-29T14:07:16.242Z,40.58
2023-07-29T14:11:16.578Z,41.55
2023-07-29T14:15:17.313Z,42.41
2023-07-29T14:19:20.240Z,41.37
2023-07-29T14:23:20.444Z,39.12
2023-07-29T14:27:20.677Z,40.10
2023-07-29T14:31:21.417Z,39.09
2023-07-29T14:35:25.199Z,39.13
2023-07-29T14:39:25.455Z,37.71
2023-07-29T14:43:26.153Z,38.30
2023-07-29T14:47:26.501Z,39.50
2023-07-29T14:51:29.403Z,39.97
2023-07-29T14:55:29.640Z,41.73
2023-07-29T14:59:30.169Z,41.75
2023-07-29T15:03:30.558Z,43.26
2023-07-29T15:07:33.639Z,43.63
2023-07-29T15:11:34.196Z,42.03
2023-07-29T15:15:34.482Z,40.72
2023-07-29T15:19:34.766Z,42.13
2023-07-29T15:23:37.621Z,42.33
2023-07-29T15:27:37.924Z,41.83
2023-07-29T15:31:38.725Z,39.68
2023-07-29T15:35:42.791Z,40.38
2023-07-29T15:39:45.787Z,40.21
2023-07-29T15:43:45.995Z,40.97
2023-07-29T15:47:46.279Z,40.38
2023-07-29T15:51:46.641Z,39.52
2023-07-29T15:55:49.605Z,39.71
2023-07-29T15:59:50.065Z,38.70
2023-07-29T16:03:51.022Z,38.66
2023-07-29T16:07:51.499Z,37.72
2023-07-29T16:11:54.409Z,39.18
2023-07-29T16:15:54.753Z,40.01
2023-07-29T16:20:00.689Z,39.70
2023-07-29T16:24:00.984Z,40.25
2023-07-29T16:28:03.894Z,39.44
2023-07-29T16:32:04.177Z,40.50
2023-07-29T16:36:04.475Z,40.85
2023-07-29T16:40:05.776Z,41.24
2023-07-29T16:44:09.027Z,41.01
2023-07-29T16:48:09.633Z,39.36
2023-07-29T16:52:10.899Z,40.53
2023-07-29T16:56:11.091Z,40.70
2023-07-29T17:00:16.155Z,41.41
2023-07-29T17:04:16.417Z,42.01
2023-07-29T17:08:16.661Z,42.28
2023-07-29T17:12:17.284Z,42.00
2023-07-29T17:16:20.442Z,41.60
2023-07-29T17:20:21.879Z,40.33
2023-07-29T17:24:22.214Z,38.72
2023-07-29T17:28:22.666Z,38.44
2023-07-29T17:32:25.587Z,39.56
2023-07-29T17:36:26.240Z,41.52
2023-07-29T17:40:26.942Z,42.53
2023-07-29T17:44:27.207Z,42.67
2023-07-29T17:48:32.182Z,42.37
2023-07-29T17:52:32.898Z,41.72
2023-07-29T17:56:33.207Z,41.33
2023-07-29T18:00:33.431Z,42.29
2023-07-29T18:04:36.362Z,43.34
2023-07-29T18:08:36.653Z,44.79
2023-07-29T18:12:36.948Z,45.27
2023-07-29T18:16:41.861Z,46.12
2023-07-29T18:20:47.173Z,45.85
2023-07-29T18:24:47.582Z,46.16
2023-07-29T18:28:47.888Z,46.23
2023-07-29T18:32:48.634Z,46.55
2023-07-29T18:36:51.476Z,46.51
2023-07-29T18:40:51.790Z,48.10
2023-07-29T18:44:52.026Z,48.12
2023-07-29T18:48:52.292Z,48.55
2023-07-29T18:52:59.188Z,48.78
2023-07-29T18:56:59.454Z,48.78
2023-07-29T19:00:59.750Z,49.17
2023-07-29T19:05:00.196Z,50.71
2023-07-29T19:09:03.284Z,50.65
2023-07-29T19:13:04.391Z,51.15
2023-07-29T19:17:04.613Z,52.32
2023-07-29T19:21:04.865Z,52.76
2023-07-29T19:25:09.683Z,53.41
2023-07-29T19:29:11.588Z,53.68
2023-07-29T19:33:11.960Z,53.97
2023-07-29T19:37:13.603Z,54.65
2023-07-29T19:41:17.537Z,55.00
2023-07-29T19:45:18.253Z,56.01
2023-07-29T19:49:18.590Z,56.71
2023-07-29T19:53:21.698Z,56.73
2023-07-29T19:57:24.679Z,56.88
2023-07-29T20:01:25.298Z,56.85
2023-07-29T20:05:25.771Z,57.19
2023-07-29T20:09:26.189Z,57.64
2023-07-29T20:13:30.047Z,57.53
2023-07-29T20:17:30.702Z,59.33
2023-07-29T20:21:30.999Z,59.28
2023-07-29T20:25:31.201Z,58.51
2023-07-29T20:29:34.102Z,59.48
2023-07-29T20:33:34.394Z,59.47
2023-07-29T20:37:34.719Z,59.44
2023-07-29T20:41:35.070Z,58.99
2023-07-29T20:45:39.733Z,58.35
2023-07-29T20:49:40.523Z,58.16
2023-07-29T20:53:40.973Z,58.00
2023-07-29T20:57:41.201Z,58.90
2023-07-29T21:01:44.301Z,59.03
2023-07-29T21:05:46.906Z,58.89
2023-07-29T21:09:47.134Z,58.79
2023-07-29T21:13:51.279Z,58.98
2023-07-29T21:17:54.685Z,58.15
2023-07-29T21:21:55.101Z,59.49
2023-07-29T21:25:55.897Z,60.68
2023-07-29T21:29:56.350Z,59.94
2023-07-29T21:33:59.292Z,59.99
2023-07-29T21:37:59.534Z,60.98
2023-07-29T21:42:00.260Z,60.45
2023-07-29T21:46:00.886Z,60.67
2023-07-29T21:50:05.238Z,62.04
2023-07-29T21:54:05.749Z,61.55
2023-07-29T21:58:06.137Z,60.78
2023-07-29T22:02:06.952Z,60.78
2023-07-29T22:06:10.430Z,60.90
2023-07-29T22:10:12.021Z,61.16
2023-07-29T22:14:12.343Z,61.55
2023-07-29T22:18:15.102Z,61.23
2023-07-29T22:22:18.304Z,61.27
2023-07-29T22:26:18.744Z,60.86
2023-07-29T22:30:19.582Z,60.58
2023-07-29T22:34:20.946Z,59.93
2023-07-29T22:38:23.893Z,59.54
2023-07-29T22:42:24.368Z,59.60
2023-07-29T22:46:24.755Z,59.29
2023-07-29T22:50:25.749Z,60.17
2023-07-29T22:54:28.676Z,60.58
2023-07-29T22:58:29.048Z,61.19
2023-07-29T23:02:29.615Z,60.81
2023-07-29T23:06:30.041Z,60.97
2023-07-29T23:10:33.872Z,61.91
2023-07-29T23:14:34.146Z,61.80
2023-07-29T23:18:34.491Z,62.50
2023-07-29T23:22:34.848Z,62.74
2023-07-29T23:26:37.872Z,63.42
2023-07-29T23:30:39.521Z,64.08
2023-07-29T23:34:39.999Z,65.13
2023-07-29T23:38:40.805Z,64.49
2023-07-29T23:42:44.015Z,64.75
2023-07-29T23:46:44.309Z,63.90
2023-07-29T23:50:44.916Z,64.01
2023-07-29T23:54:45.433Z,63.82
2023-07-29T23:58:48.508Z,64.96
